Airfield :
LOGIN :

Register | Disclaimer

   EN    FR    IT 

 










Legend :    VFR   Marginal VFR   IFR   Intensive IFR   Very Intensive IFR
Visi :
Ceiling :
>= 8 km
>= 3000ft
5 to 8 km
1000 to 3000 ft
1500m to 5 km
500 to 1000 ft
800 to 1500m
200 to 500 ft
< 800m
< 200 ft
Symbols :   Thunderstorms  Fog  Heavy snow  Heavy precipitations  Wind > 20 kt
SIGMETs :     Misc.  Thunderstorms  Icing  Turbulence  Mountain Waves  Volcanic Ashes







- Airport Elevation : 359 ft
- IATA code : BVA
- Download approach charts


LFOB - Beauvais

CURRENT METAR :
  • 241630Z AUTO 32008KT CAVOK 22/11 Q1016 TEMPO 4000 SHRA BKN050CB

EXPIRED METARs :
  • 241600Z AUTO 33007KT 300V010 CAVOK 22/10 Q1016 TEMPO 4000 SHRA BKN050CB
  • 241530Z AUTO 34008KT 300V030 CAVOK 22/08 Q1016 TEMPO 4000 SHRA BKN050CB
  • 241500Z AUTO 33007KT 290V040 CAVOK 21/09 Q1016 TEMPO 4000 SHRA BKN050CB
  • 241430Z AUTO 36009KT 320V090 CAVOK 22/11 Q1016 TEMPO 4000 SHRA BKN050CB
  • 241400Z AUTO 30007KT 250V340 CAVOK 22/11 Q1016 TEMPO 4000 SHRA BKN050CB

TAF TAF LFOB
Valid from the 24 at 12:00 until the 25 at 12:00 UTC


241100Z 2412/2512 30007KT CAVOK
TEMPO 2413/2419 4000 SHRA BKN050CB
ATIS : +33 3 44 11 49 28
No reported NOTAMs for that airfield.



MET'MAP, your aeronautical weather chart ! - Copyright ORBIFLY December 2007 - Disclaimer

ORBIFLY MET'MAP TEAM :

Programming & Development : Alexandra Zaïnal
Concept & Development : Baudouin d'Aumeries
Co-Development & Prog : Marc-Olivier Méhu
Technical & hardware support : Manuel Goepfert

Contact : metmap@orbifly.com




SOURCES & CREDITS :

   NOAA